Decoded Metar for YBCS (CAIRNS in AUSTRALIA) (IATA:CNS) | Meteo·Mobile Aviation Weather
aviador You're here:

YBCS Decoded Metar

CAIRNS in AUSTRALIA
Report Time2019-01-18 00:00:00
UTC Time2019-01-18 00:09:40
Flight Rules mvfr MVFR
Wind150° at 07 kt
W.Decomp.*RWY 15: 6.9 kt HW 0.9 kt LCW
RWY 12: 6.4 kt HW 2.7 kt RCW
W.Rank150° ranks 3
Current wind is below 150° avg. (9.3)
Visibility9999 m
Phenomena:Shower Rain
Clouds:Broken 029 Hf
Broken 036 Hf
Broken 049 Hf
Expected CloudBase > 2,400 ft AGL from Temp-Dew spread
Ceiling2,900 ft
Temp29°C (ISA +14)
Dew Point23°C (70% RH)
Heat Index32.7°C
QNH1011 hPa
Density Alt2,073 ft
Elevation23 ft
Report Wrong Elevation
Raw Report
METAR YBCS 180000Z AUTO 15007KT 9999 // BKN029 BKN036 BKN049 29/23 Q1011
INTER 0030/0300 4000 SHRA BKN015=

Extra information for YBCS:More info

Metar Taf Metar & Taf Last 4 Metars F.Rules Stats Wind Profile Meteogram Temp Stats Airport Information Weather charts Add Link Nearby VenuesMetar ALERT Operation Metar Decoded Social comments